sensor_id;sensor_type;location;lat;lon;timestamp;P1;durP1;ratioP1;P2;durP2;ratioP2
20318;SDS011;10317;47.254;11.314;2022-07-31T00:00:38;2.90;;;2.80;;
20318;SDS011;10317;47.254;11.314;2022-07-31T00:03:04;3.25;;;2.95;;
20318;SDS011;10317;47.254;11.314;2022-07-31T00:05:30;3.30;;;3.08;;
20318;SDS011;10317;47.254;11.314;2022-07-31T00:07:57;2.85;;;2.75;;
20318;SDS011;10317;47.254;11.314;2022-07-31T00:10:23;2.50;;;2.40;;
20318;SDS011;10317;47.254;11.314;2022-07-31T00:12:49;3.17;;;2.92;;
20318;SDS011;10317;47.254;11.314;2022-07-31T00:15:14;3.60;;;3.40;;
20318;SDS011;10317;47.254;11.314;2022-07-31T00:17:41;4.18;;;3.30;;
20318;SDS011;10317;47.254;11.314;2022-07-31T00:20:09;3.08;;;2.88;;
20318;SDS011;10317;47.254;11.314;2022-07-31T00:22:41;3.25;;;3.05;;
20318;SDS011;10317;47.254;11.314;2022-07-31T00:25:08;4.63;;;3.28;;
20318;SDS011;10317;47.254;11.314;2022-07-31T00:27:35;4.32;;;2.80;;
20318;SDS011;10317;47.254;11.314;2022-07-31T00:30:01;3.15;;;2.80;;
20318;SDS011;10317;47.254;11.314;2022-07-31T00:32:27;3.47;;;2.70;;
20318;SDS011;10317;47.254;11.314;2022-07-31T00:34:53;3.05;;;2.83;;
20318;SDS011;10317;47.254;11.314;2022-07-31T00:37:19;3.05;;;2.70;;
20318;SDS011;10317;47.254;11.314;2022-07-31T00:39:44;4.15;;;2.60;;
20318;SDS011;10317;47.254;11.314;2022-07-31T00:42:16;3.20;;;3.03;;
20318;SDS011;10317;47.254;11.314;2022-07-31T00:44:44;3.00;;;2.90;;
20318;SDS011;10317;47.254;11.314;2022-07-31T00:47:11;3.47;;;3.28;;
20318;SDS011;10317;47.254;11.314;2022-07-31T00:49:37;3.30;;;3.10;;
20318;SDS011;10317;47.254;11.314;2022-07-31T00:52:03;4.38;;;3.17;;
20318;SDS011;10317;47.254;11.314;2022-07-31T00:54:29;3.15;;;2.95;;
20318;SDS011;10317;47.254;11.314;2022-07-31T00:56:55;3.35;;;2.58;;
20318;SDS011;10317;47.254;11.314;2022-07-31T00:59:20;3.15;;;2.42;;
20318;SDS011;10317;47.254;11.314;2022-07-31T01:01:46;4.05;;;2.95;;
20318;SDS011;10317;47.254;11.314;2022-07-31T01:04:12;4.25;;;3.90;;
20318;SDS011;10317;47.254;11.314;2022-07-31T01:06:40;3.65;;;3.33;;
20318;SDS011;10317;47.254;11.314;2022-07-31T01:09:06;2.63;;;2.53;;
20318;SDS011;10317;47.254;11.314;2022-07-31T01:11:43;3.35;;;2.63;;
20318;SDS011;10317;47.254;11.314;2022-07-31T01:14:12;2.58;;;2.38;;
20318;SDS011;10317;47.254;11.314;2022-07-31T01:16:40;3.90;;;3.08;;
20318;SDS011;10317;47.254;11.314;2022-07-31T01:19:14;2.85;;;2.75;;
20318;SDS011;10317;47.254;11.314;2022-07-31T01:21:53;2.88;;;2.60;;
20318;SDS011;10317;47.254;11.314;2022-07-31T01:27:09;2.50;;;2.40;;
20318;SDS011;10317;47.254;11.314;2022-07-31T01:29:56;5.53;;;2.80;;
20318;SDS011;10317;47.254;11.314;2022-07-31T01:32:28;3.97;;;2.85;;
20318;SDS011;10317;47.254;11.314;2022-07-31T01:37:44;3.17;;;2.97;;
20318;SDS011;10317;47.254;11.314;2022-07-31T01:40:36;3.00;;;2.80;;
20318;SDS011;10317;47.254;11.314;2022-07-31T01:43:07;2.78;;;2.65;;
20318;SDS011;10317;47.254;11.314;2022-07-31T01:45:42;3.75;;;3.45;;
20318;SDS011;10317;47.254;11.314;2022-07-31T01:48:10;3.38;;;2.90;;
20318;SDS011;10317;47.254;11.314;2022-07-31T01:50:39;3.40;;;3.00;;
20318;SDS011;10317;47.254;11.314;2022-07-31T01:53:06;2.70;;;2.60;;
20318;SDS011;10317;47.254;11.314;2022-07-31T01:55:33;3.67;;;3.47;;
20318;SDS011;10317;47.254;11.314;2022-07-31T01:58:00;2.75;;;2.63;;
20318;SDS011;10317;47.254;11.314;2022-07-31T02:00:27;3.20;;;2.92;;
20318;SDS011;10317;47.254;11.314;2022-07-31T02:02:53;3.40;;;3.30;;
20318;SDS011;10317;47.254;11.314;2022-07-31T02:05:21;3.60;;;3.33;;
20318;SDS011;10317;47.254;11.314;2022-07-31T02:07:48;3.13;;;3.00;;
20318;SDS011;10317;47.254;11.314;2022-07-31T02:10:14;5.43;;;3.28;;
20318;SDS011;10317;47.254;11.314;2022-07-31T02:12:41;4.25;;;3.00;;
20318;SDS011;10317;47.254;11.314;2022-07-31T02:15:09;3.25;;;3.08;;
20318;SDS011;10317;47.254;11.314;2022-07-31T02:17:38;2.97;;;2.78;;
20318;SDS011;10317;47.254;11.314;2022-07-31T02:20:06;2.97;;;2.78;;
20318;SDS011;10317;47.254;11.314;2022-07-31T02:22:33;3.33;;;3.17;;
20318;SDS011;10317;47.254;11.314;2022-07-31T02:24:59;2.70;;;2.60;;
20318;SDS011;10317;47.254;11.314;2022-07-31T02:27:26;3.15;;;2.90;;
20318;SDS011;10317;47.254;11.314;2022-07-31T02:29:53;4.28;;;3.17;;
20318;SDS011;10317;47.254;11.314;2022-07-31T02:32:23;4.45;;;3.05;;
20318;SDS011;10317;47.254;11.314;2022-07-31T02:34:51;3.20;;;3.03;;
20318;SDS011;10317;47.254;11.314;2022-07-31T02:37:19;3.08;;;2.80;;
20318;SDS011;10317;47.254;11.314;2022-07-31T02:39:48;3.45;;;3.08;;
20318;SDS011;10317;47.254;11.314;2022-07-31T02:42:16;3.42;;;3.17;;
20318;SDS011;10317;47.254;11.314;2022-07-31T02:44:43;3.50;;;3.30;;
20318;SDS011;10317;47.254;11.314;2022-07-31T02:47:09;5.15;;;3.08;;
20318;SDS011;10317;47.254;11.314;2022-07-31T02:49:36;3.42;;;2.75;;
20318;SDS011;10317;47.254;11.314;2022-07-31T02:52:03;3.20;;;3.05;;
20318;SDS011;10317;47.254;11.314;2022-07-31T02:54:30;5.72;;;3.60;;
20318;SDS011;10317;47.254;11.314;2022-07-31T02:56:57;3.10;;;2.90;;
20318;SDS011;10317;47.254;11.314;2022-07-31T02:59:26;3.58;;;3.38;;
20318;SDS011;10317;47.254;11.314;2022-07-31T03:01:53;3.22;;;2.83;;
20318;SDS011;10317;47.254;11.314;2022-07-31T03:04:19;3.35;;;2.90;;
20318;SDS011;10317;47.254;11.314;2022-07-31T03:06:45;2.92;;;2.72;;
20318;SDS011;10317;47.254;11.314;2022-07-31T03:09:13;4.05;;;3.42;;
20318;SDS011;10317;47.254;11.314;2022-07-31T03:11:39;3.30;;;3.10;;
20318;SDS011;10317;47.254;11.314;2022-07-31T03:14:06;3.78;;;3.47;;
20318;SDS011;10317;47.254;11.314;2022-07-31T03:16:33;3.17;;;2.60;;
20318;SDS011;10317;47.254;11.314;2022-07-31T03:19:00;3.35;;;3.13;;
20318;SDS011;10317;47.254;11.314;2022-07-31T03:21:27;3.22;;;3.05;;
20318;SDS011;10317;47.254;11.314;2022-07-31T03:23:54;4.22;;;3.10;;
20318;SDS011;10317;47.254;11.314;2022-07-31T03:26:20;2.88;;;2.78;;
20318;SDS011;10317;47.254;11.314;2022-07-31T03:28:45;4.43;;;3.25;;
20318;SDS011;10317;47.254;11.314;2022-07-31T03:31:12;3.03;;;2.90;;
20318;SDS011;10317;47.254;11.314;2022-07-31T03:33:38;3.78;;;3.50;;
20318;SDS011;10317;47.254;11.314;2022-07-31T03:36:04;3.03;;;2.85;;
20318;SDS011;10317;47.254;11.314;2022-07-31T03:38:30;4.68;;;4.25;;
20318;SDS011;10317;47.254;11.314;2022-07-31T03:40:55;5.63;;;3.10;;
20318;SDS011;10317;47.254;11.314;2022-07-31T03:43:21;4.40;;;3.78;;
20318;SDS011;10317;47.254;11.314;2022-07-31T03:45:47;3.70;;;3.40;;
20318;SDS011;10317;47.254;11.314;2022-07-31T03:48:15;3.55;;;3.22;;
20318;SDS011;10317;47.254;11.314;2022-07-31T03:50:41;5.50;;;3.30;;
20318;SDS011;10317;47.254;11.314;2022-07-31T03:53:07;4.13;;;3.45;;
20318;SDS011;10317;47.254;11.314;2022-07-31T03:55:34;3.53;;;3.33;;
20318;SDS011;10317;47.254;11.314;2022-07-31T03:58:03;5.70;;;3.10;;
20318;SDS011;10317;47.254;11.314;2022-07-31T04:00:29;3.20;;;2.92;;
20318;SDS011;10317;47.254;11.314;2022-07-31T04:02:56;3.88;;;3.28;;
20318;SDS011;10317;47.254;11.314;2022-07-31T04:05:22;3.28;;;3.08;;
20318;SDS011;10317;47.254;11.314;2022-07-31T04:07:49;3.50;;;3.20;;
20318;SDS011;10317;47.254;11.314;2022-07-31T04:10:15;3.85;;;3.53;;
20318;SDS011;10317;47.254;11.314;2022-07-31T04:12:41;3.72;;;3.42;;
20318;SDS011;10317;47.254;11.314;2022-07-31T04:15:06;4.60;;;3.88;;
20318;SDS011;10317;47.254;11.314;2022-07-31T04:17:32;3.08;;;2.97;;
20318;SDS011;10317;47.254;11.314;2022-07-31T04:19:58;3.13;;;2.78;;
20318;SDS011;10317;47.254;11.314;2022-07-31T04:22:24;3.42;;;3.22;;
20318;SDS011;10317;47.254;11.314;2022-07-31T04:24:49;3.38;;;3.08;;
20318;SDS011;10317;47.254;11.314;2022-07-31T04:27:16;3.55;;;3.35;;
20318;SDS011;10317;47.254;11.314;2022-07-31T04:29:42;3.65;;;3.20;;
20318;SDS011;10317;47.254;11.314;2022-07-31T04:32:09;3.40;;;3.10;;
20318;SDS011;10317;47.254;11.314;2022-07-31T04:34:35;2.80;;;2.70;;
20318;SDS011;10317;47.254;11.314;2022-07-31T04:37:04;5.07;;;3.58;;
20318;SDS011;10317;47.254;11.314;2022-07-31T04:39:30;3.28;;;3.08;;
20318;SDS011;10317;47.254;11.314;2022-07-31T04:41:55;3.78;;;3.45;;
20318;SDS011;10317;47.254;11.314;2022-07-31T04:44:21;3.65;;;3.40;;
20318;SDS011;10317;47.254;11.314;2022-07-31T04:46:47;3.75;;;3.25;;
20318;SDS011;10317;47.254;11.314;2022-07-31T04:49:13;5.20;;;3.13;;
20318;SDS011;10317;47.254;11.314;2022-07-31T04:51:39;3.47;;;3.25;;
20318;SDS011;10317;47.254;11.314;2022-07-31T04:54:11;3.47;;;3.13;;
20318;SDS011;10317;47.254;11.314;2022-07-31T04:56:36;3.42;;;3.22;;
20318;SDS011;10317;47.254;11.314;2022-07-31T04:59:12;5.45;;;3.28;;
20318;SDS011;10317;47.254;11.314;2022-07-31T05:01:41;3.75;;;3.55;;
20318;SDS011;10317;47.254;11.314;2022-07-31T05:04:07;3.47;;;3.28;;
20318;SDS011;10317;47.254;11.314;2022-07-31T05:06:34;3.85;;;3.55;;
20318;SDS011;10317;47.254;11.314;2022-07-31T05:09:08;3.45;;;3.25;;
20318;SDS011;10317;47.254;11.314;2022-07-31T05:11:35;3.80;;;3.50;;
20318;SDS011;10317;47.254;11.314;2022-07-31T05:14:02;3.95;;;3.55;;
20318;SDS011;10317;47.254;11.314;2022-07-31T05:16:29;3.60;;;3.40;;
20318;SDS011;10317;47.254;11.314;2022-07-31T05:18:56;3.55;;;3.35;;
20318;SDS011;10317;47.254;11.314;2022-07-31T05:21:22;3.42;;;3.22;;
20318;SDS011;10317;47.254;11.314;2022-07-31T05:23:51;3.17;;;2.97;;
20318;SDS011;10317;47.254;11.314;2022-07-31T05:26:18;4.90;;;3.20;;
20318;SDS011;10317;47.254;11.314;2022-07-31T05:28:44;3.53;;;3.22;;
20318;SDS011;10317;47.254;11.314;2022-07-31T05:31:11;3.60;;;3.30;;
20318;SDS011;10317;47.254;11.314;2022-07-31T05:33:37;2.80;;;2.70;;
20318;SDS011;10317;47.254;11.314;2022-07-31T05:36:03;3.60;;;3.40;;
20318;SDS011;10317;47.254;11.314;2022-07-31T05:38:30;3.40;;;3.20;;
20318;SDS011;10317;47.254;11.314;2022-07-31T05:40:55;6.40;;;3.35;;
20318;SDS011;10317;47.254;11.314;2022-07-31T05:43:21;4.05;;;3.75;;
20318;SDS011;10317;47.254;11.314;2022-07-31T05:45:47;3.72;;;3.42;;
20318;SDS011;10317;47.254;11.314;2022-07-31T05:48:13;3.58;;;3.33;;
20318;SDS011;10317;47.254;11.314;2022-07-31T05:50:46;6.20;;;3.95;;
20318;SDS011;10317;47.254;11.314;2022-07-31T05:53:13;3.80;;;3.50;;
20318;SDS011;10317;47.254;11.314;2022-07-31T05:55:43;3.42;;;3.22;;
20318;SDS011;10317;47.254;11.314;2022-07-31T05:58:10;3.70;;;3.50;;
20318;SDS011;10317;47.254;11.314;2022-07-31T06:00:36;3.65;;;3.40;;
20318;SDS011;10317;47.254;11.314;2022-07-31T06:03:02;3.58;;;3.35;;
20318;SDS011;10317;47.254;11.314;2022-07-31T06:05:29;4.10;;;3.75;;
20318;SDS011;10317;47.254;11.314;2022-07-31T06:07:56;3.83;;;3.47;;
20318;SDS011;10317;47.254;11.314;2022-07-31T06:10:25;3.45;;;3.13;;
20318;SDS011;10317;47.254;11.314;2022-07-31T06:12:51;3.30;;;3.00;;
20318;SDS011;10317;47.254;11.314;2022-07-31T06:15:18;3.35;;;3.00;;
20318;SDS011;10317;47.254;11.314;2022-07-31T06:17:44;4.43;;;3.15;;
20318;SDS011;10317;47.254;11.314;2022-07-31T06:20:10;3.28;;;3.00;;
20318;SDS011;10317;47.254;11.314;2022-07-31T06:22:37;3.20;;;3.00;;
20318;SDS011;10317;47.254;11.314;2022-07-31T06:25:04;4.82;;;3.25;;
20318;SDS011;10317;47.254;11.314;2022-07-31T06:53:07;3.97;;;3.67;;
20318;SDS011;10317;47.254;11.314;2022-07-31T06:55:33;3.90;;;3.70;;
20318;SDS011;10317;47.254;11.314;2022-07-31T06:57:59;4.03;;;3.78;;
20318;SDS011;10317;47.254;11.314;2022-07-31T07:23:59;4.28;;;3.90;;
20318;SDS011;10317;47.254;11.314;2022-07-31T07:26:25;4.25;;;3.95;;
20318;SDS011;10317;47.254;11.314;2022-07-31T07:28:50;4.25;;;3.95;;
20318;SDS011;10317;47.254;11.314;2022-07-31T07:31:16;4.82;;;4.53;;
20318;SDS011;10317;47.254;11.314;2022-07-31T07:33:42;3.70;;;3.47;;
20318;SDS011;10317;47.254;11.314;2022-07-31T07:36:11;4.25;;;4.00;;
20318;SDS011;10317;47.254;11.314;2022-07-31T07:38:36;5.60;;;3.35;;
20318;SDS011;10317;47.254;11.314;2022-07-31T07:41:02;4.38;;;3.97;;
20318;SDS011;10317;47.254;11.314;2022-07-31T07:43:28;4.18;;;3.72;;
20318;SDS011;10317;47.254;11.314;2022-07-31T07:45:53;4.25;;;3.95;;
20318;SDS011;10317;47.254;11.314;2022-07-31T07:48:19;3.97;;;3.72;;
20318;SDS011;10317;47.254;11.314;2022-07-31T07:50:45;3.60;;;3.40;;
20318;SDS011;10317;47.254;11.314;2022-07-31T07:53:11;3.70;;;3.50;;
20318;SDS011;10317;47.254;11.314;2022-07-31T07:55:37;4.25;;;3.75;;
20318;SDS011;10317;47.254;11.314;2022-07-31T07:58:03;5.22;;;3.95;;
20318;SDS011;10317;47.254;11.314;2022-07-31T08:00:29;3.70;;;3.40;;
20318;SDS011;10317;47.254;11.314;2022-07-31T08:02:54;3.28;;;3.08;;
20318;SDS011;10317;47.254;11.314;2022-07-31T08:05:20;4.57;;;3.38;;
20318;SDS011;10317;47.254;11.314;2022-07-31T08:07:46;3.20;;;3.00;;
20318;SDS011;10317;47.254;11.314;2022-07-31T08:10:12;4.78;;;3.60;;
20318;SDS011;10317;47.254;11.314;2022-07-31T08:12:42;3.75;;;3.45;;
20318;SDS011;10317;47.254;11.314;2022-07-31T08:15:08;4.25;;;3.95;;
20318;SDS011;10317;47.254;11.314;2022-07-31T08:17:34;3.70;;;3.50;;
20318;SDS011;10317;47.254;11.314;2022-07-31T08:19:59;4.00;;;3.72;;
20318;SDS011;10317;47.254;11.314;2022-07-31T08:22:31;4.28;;;3.85;;
20318;SDS011;10317;47.254;11.314;2022-07-31T08:24:58;3.83;;;3.58;;
20318;SDS011;10317;47.254;11.314;2022-07-31T08:27:24;4.85;;;4.45;;
20318;SDS011;10317;47.254;11.314;2022-07-31T08:29:51;4.40;;;4.00;;
20318;SDS011;10317;47.254;11.314;2022-07-31T08:32:21;4.38;;;4.07;;
20318;SDS011;10317;47.254;11.314;2022-07-31T08:34:49;4.63;;;4.25;;
20318;SDS011;10317;47.254;11.314;2022-07-31T08:37:15;4.40;;;4.10;;
20318;SDS011;10317;47.254;11.314;2022-07-31T08:39:45;4.20;;;3.90;;
20318;SDS011;10317;47.254;11.314;2022-07-31T08:42:13;5.30;;;4.32;;
20318;SDS011;10317;47.254;11.314;2022-07-31T08:44:39;4.13;;;3.80;;
20318;SDS011;10317;47.254;11.314;2022-07-31T08:47:09;4.93;;;3.65;;
20318;SDS011;10317;47.254;11.314;2022-07-31T08:49:41;4.63;;;4.22;;
20318;SDS011;10317;47.254;11.314;2022-07-31T08:52:09;3.95;;;3.70;;
20318;SDS011;10317;47.254;11.314;2022-07-31T08:54:41;4.18;;;3.88;;
20318;SDS011;10317;47.254;11.314;2022-07-31T08:57:07;3.80;;;3.60;;
20318;SDS011;10317;47.254;11.314;2022-07-31T08:59:36;3.80;;;3.53;;
20318;SDS011;10317;47.254;11.314;2022-07-31T09:02:03;3.85;;;3.55;;
20318;SDS011;10317;47.254;11.314;2022-07-31T09:04:30;3.75;;;3.55;;
20318;SDS011;10317;47.254;11.314;2022-07-31T09:06:56;4.97;;;4.15;;
20318;SDS011;10317;47.254;11.314;2022-07-31T09:09:24;3.58;;;3.38;;
20318;SDS011;10317;47.254;11.314;2022-07-31T09:11:50;4.85;;;4.45;;
20318;SDS011;10317;47.254;11.314;2022-07-31T09:16:53;4.05;;;3.65;;
20318;SDS011;10317;47.254;11.314;2022-07-31T09:19:20;4.70;;;4.10;;
20318;SDS011;10317;47.254;11.314;2022-07-31T09:21:47;3.45;;;3.17;;
20318;SDS011;10317;47.254;11.314;2022-07-31T09:24:24;3.83;;;3.53;;
20318;SDS011;10317;47.254;11.314;2022-07-31T09:26:56;3.95;;;3.65;;
20318;SDS011;10317;47.254;11.314;2022-07-31T09:29:34;4.30;;;3.97;;
20318;SDS011;10317;47.254;11.314;2022-07-31T09:32:07;3.70;;;3.50;;
20318;SDS011;10317;47.254;11.314;2022-07-31T09:34:37;4.97;;;3.72;;
20318;SDS011;10317;47.254;11.314;2022-07-31T09:37:07;3.42;;;3.13;;
20318;SDS011;10317;47.254;11.314;2022-07-31T09:39:34;4.90;;;3.55;;
20318;SDS011;10317;47.254;11.314;2022-07-31T09:42:01;3.55;;;3.35;;
20318;SDS011;10317;47.254;11.314;2022-07-31T09:44:41;3.63;;;3.30;;
20318;SDS011;10317;47.254;11.314;2022-07-31T09:47:24;4.60;;;3.45;;
20318;SDS011;10317;47.254;11.314;2022-07-31T09:49:56;5.20;;;3.05;;
20318;SDS011;10317;47.254;11.314;2022-07-31T09:52:24;3.20;;;2.90;;
20318;SDS011;10317;47.254;11.314;2022-07-31T09:55:01;3.45;;;2.88;;
20318;SDS011;10317;47.254;11.314;2022-07-31T10:47:12;2.97;;;2.30;;
20318;SDS011;10317;47.254;11.314;2022-07-31T10:49:40;2.50;;;2.30;;
20318;SDS011;10317;47.254;11.314;2022-07-31T10:52:07;2.97;;;2.60;;
20318;SDS011;10317;47.254;11.314;2022-07-31T10:54:45;2.72;;;2.53;;
20318;SDS011;10317;47.254;11.314;2022-07-31T10:57:24;2.65;;;2.50;;
20318;SDS011;10317;47.254;11.314;2022-07-31T10:59:52;2.47;;;2.38;;
20318;SDS011;10317;47.254;11.314;2022-07-31T11:02:31;2.10;;;2.00;;
20318;SDS011;10317;47.254;11.314;2022-07-31T11:05:15;2.92;;;2.72;;
20318;SDS011;10317;47.254;11.314;2022-07-31T11:07:46;2.55;;;2.40;;
20318;SDS011;10317;47.254;11.314;2022-07-31T11:10:16;2.50;;;2.40;;
20318;SDS011;10317;47.254;11.314;2022-07-31T11:12:43;2.88;;;2.70;;
20318;SDS011;10317;47.254;11.314;2022-07-31T11:15:20;2.00;;;1.90;;
20318;SDS011;10317;47.254;11.314;2022-07-31T11:17:47;2.85;;;2.63;;
20318;SDS011;10317;47.254;11.314;2022-07-31T11:20:23;2.42;;;2.20;;
20318;SDS011;10317;47.254;11.314;2022-07-31T11:25:24;2.30;;;2.10;;
20318;SDS011;10317;47.254;11.314;2022-07-31T11:27:53;3.17;;;2.50;;
20318;SDS011;10317;47.254;11.314;2022-07-31T11:30:20;2.75;;;2.30;;
20318;SDS011;10317;47.254;11.314;2022-07-31T11:32:50;2.72;;;2.63;;
20318;SDS011;10317;47.254;11.314;2022-07-31T11:35:23;2.33;;;2.20;;
20318;SDS011;10317;47.254;11.314;2022-07-31T11:37:50;2.35;;;2.25;;
20318;SDS011;10317;47.254;11.314;2022-07-31T11:40:16;2.47;;;2.38;;
20318;SDS011;10317;47.254;11.314;2022-07-31T11:42:44;2.80;;;2.70;;
20318;SDS011;10317;47.254;11.314;2022-07-31T11:45:10;2.30;;;2.17;;
20318;SDS011;10317;47.254;11.314;2022-07-31T11:50:05;2.47;;;2.38;;
20318;SDS011;10317;47.254;11.314;2022-07-31T11:52:32;2.88;;;2.72;;
20318;SDS011;10317;47.254;11.314;2022-07-31T11:55:07;2.63;;;2.53;;
20318;SDS011;10317;47.254;11.314;2022-07-31T11:57:38;3.22;;;3.03;;
20318;SDS011;10317;47.254;11.314;2022-07-31T12:00:11;3.05;;;2.85;;
20318;SDS011;10317;47.254;11.314;2022-07-31T12:02:42;3.42;;;3.17;;
20318;SDS011;10317;47.254;11.314;2022-07-31T12:05:09;2.33;;;2.20;;
20318;SDS011;10317;47.254;11.314;2022-07-31T12:07:38;3.00;;;2.80;;
20318;SDS011;10317;47.254;11.314;2022-07-31T12:10:10;4.03;;;3.20;;
20318;SDS011;10317;47.254;11.314;2022-07-31T12:12:37;2.75;;;2.63;;
20318;SDS011;10317;47.254;11.314;2022-07-31T12:15:17;5.20;;;2.90;;
20318;SDS011;10317;47.254;11.314;2022-07-31T12:17:44;3.17;;;2.97;;
20318;SDS011;10317;47.254;11.314;2022-07-31T12:20:11;2.30;;;2.20;;
20318;SDS011;10317;47.254;11.314;2022-07-31T12:22:37;2.65;;;2.55;;
20318;SDS011;10317;47.254;11.314;2022-07-31T12:25:03;2.63;;;2.53;;
20318;SDS011;10317;47.254;11.314;2022-07-31T12:27:34;3.20;;;2.55;;
20318;SDS011;10317;47.254;11.314;2022-07-31T12:30:10;4.85;;;3.22;;
20318;SDS011;10317;47.254;11.314;2022-07-31T12:32:37;3.00;;;2.80;;
20318;SDS011;10317;47.254;11.314;2022-07-31T12:35:03;2.83;;;2.72;;
20318;SDS011;10317;47.254;11.314;2022-07-31T12:37:30;3.15;;;2.88;;
20318;SDS011;10317;47.254;11.314;2022-07-31T12:40:06;3.60;;;3.40;;
20318;SDS011;10317;47.254;11.314;2022-07-31T12:42:33;2.65;;;2.45;;
20318;SDS011;10317;47.254;11.314;2022-07-31T12:45:01;2.95;;;2.50;;
20318;SDS011;10317;47.254;11.314;2022-07-31T12:47:32;3.10;;;2.90;;
20318;SDS011;10317;47.254;11.314;2022-07-31T12:49:59;2.63;;;2.53;;
20318;SDS011;10317;47.254;11.314;2022-07-31T12:52:26;3.10;;;2.80;;
20318;SDS011;10317;47.254;11.314;2022-07-31T12:54:54;3.00;;;2.80;;
20318;SDS011;10317;47.254;11.314;2022-07-31T12:57:20;2.17;;;2.10;;
20318;SDS011;10317;47.254;11.314;2022-07-31T12:59:46;2.63;;;2.42;;
20318;SDS011;10317;47.254;11.314;2022-07-31T13:02:11;5.18;;;2.70;;
20318;SDS011;10317;47.254;11.314;2022-07-31T13:04:37;2.75;;;2.65;;
20318;SDS011;10317;47.254;11.314;2022-07-31T13:07:03;3.00;;;2.80;;
20318;SDS011;10317;47.254;11.314;2022-07-31T13:09:29;3.10;;;2.80;;
20318;SDS011;10317;47.254;11.314;2022-07-31T13:11:55;2.67;;;2.58;;
20318;SDS011;10317;47.254;11.314;2022-07-31T13:14:21;2.40;;;2.30;;
20318;SDS011;10317;47.254;11.314;2022-07-31T13:16:48;2.70;;;2.60;;
20318;SDS011;10317;47.254;11.314;2022-07-31T13:19:16;3.30;;;3.10;;
20318;SDS011;10317;47.254;11.314;2022-07-31T13:21:42;2.70;;;2.60;;
20318;SDS011;10317;47.254;11.314;2022-07-31T13:24:08;3.05;;;2.90;;
20318;SDS011;10317;47.254;11.314;2022-07-31T13:26:34;4.07;;;2.95;;
20318;SDS011;10317;47.254;11.314;2022-07-31T13:29:02;3.10;;;2.90;;
20318;SDS011;10317;47.254;11.314;2022-07-31T13:31:28;3.00;;;2.70;;
20318;SDS011;10317;47.254;11.314;2022-07-31T13:33:54;2.83;;;2.63;;
20318;SDS011;10317;47.254;11.314;2022-07-31T13:36:21;2.63;;;2.42;;
20318;SDS011;10317;47.254;11.314;2022-07-31T13:38:46;3.25;;;3.05;;
20318;SDS011;10317;47.254;11.314;2022-07-31T13:41:12;3.08;;;2.60;;
20318;SDS011;10317;47.254;11.314;2022-07-31T13:43:55;2.58;;;2.40;;
20318;SDS011;10317;47.254;11.314;2022-07-31T13:46:22;3.45;;;2.33;;
20318;SDS011;10317;47.254;11.314;2022-07-31T13:48:49;2.65;;;2.47;;
20318;SDS011;10317;47.254;11.314;2022-07-31T13:51:16;3.30;;;2.95;;
20318;SDS011;10317;47.254;11.314;2022-07-31T13:53:42;2.97;;;2.78;;
20318;SDS011;10317;47.254;11.314;2022-07-31T13:56:15;2.50;;;2.38;;
20318;SDS011;10317;47.254;11.314;2022-07-31T13:58:42;3.22;;;2.90;;
20318;SDS011;10317;47.254;11.314;2022-07-31T14:01:08;3.35;;;2.75;;
20318;SDS011;10317;47.254;11.314;2022-07-31T14:03:34;3.40;;;2.70;;
20318;SDS011;10317;47.254;11.314;2022-07-31T14:05:59;2.88;;;2.78;;
20318;SDS011;10317;47.254;11.314;2022-07-31T14:08:25;3.53;;;3.22;;
20318;SDS011;10317;47.254;11.314;2022-07-31T14:10:51;3.15;;;2.95;;
20318;SDS011;10317;47.254;11.314;2022-07-31T14:13:17;3.00;;;2.65;;
20318;SDS011;10317;47.254;11.314;2022-07-31T14:46:02;3.10;;;2.58;;
20318;SDS011;10317;47.254;11.314;2022-07-31T14:48:29;2.60;;;2.50;;
20318;SDS011;10317;47.254;11.314;2022-07-31T14:50:55;2.80;;;2.70;;
20318;SDS011;10317;47.254;11.314;2022-07-31T14:53:21;2.92;;;2.78;;
20318;SDS011;10317;47.254;11.314;2022-07-31T14:55:46;4.45;;;2.80;;
20318;SDS011;10317;47.254;11.314;2022-07-31T14:58:12;2.85;;;2.67;;
20318;SDS011;10317;47.254;11.314;2022-07-31T15:00:38;3.15;;;2.95;;
20318;SDS011;10317;47.254;11.314;2022-07-31T15:03:04;3.45;;;3.15;;
20318;SDS011;10317;47.254;11.314;2022-07-31T15:05:29;2.85;;;2.63;;
20318;SDS011;10317;47.254;11.314;2022-07-31T15:07:55;2.92;;;2.80;;
20318;SDS011;10317;47.254;11.314;2022-07-31T15:10:21;3.00;;;2.80;;
20318;SDS011;10317;47.254;11.314;2022-07-31T15:12:46;3.60;;;2.60;;
20318;SDS011;10317;47.254;11.314;2022-07-31T15:15:12;3.05;;;2.60;;
20318;SDS011;10317;47.254;11.314;2022-07-31T15:17:38;5.60;;;3.42;;
20318;SDS011;10317;47.254;11.314;2022-07-31T15:20:03;2.78;;;2.58;;
20318;SDS011;10317;47.254;11.314;2022-07-31T15:22:30;4.38;;;3.10;;
20318;SDS011;10317;47.254;11.314;2022-07-31T15:24:55;3.28;;;3.08;;
20318;SDS011;10317;47.254;11.314;2022-07-31T15:27:21;2.65;;;2.55;;
20318;SDS011;10317;47.254;11.314;2022-07-31T15:29:48;2.92;;;2.75;;
20318;SDS011;10317;47.254;11.314;2022-07-31T15:32:13;2.97;;;2.75;;
20318;SDS011;10317;47.254;11.314;2022-07-31T15:34:39;2.78;;;2.67;;
20318;SDS011;10317;47.254;11.314;2022-07-31T15:37:05;3.80;;;2.90;;
20318;SDS011;10317;47.254;11.314;2022-07-31T15:39:31;2.92;;;2.65;;
20318;SDS011;10317;47.254;11.314;2022-07-31T15:41:56;5.65;;;2.85;;
20318;SDS011;10317;47.254;11.314;2022-07-31T15:44:23;6.55;;;5.35;;
20318;SDS011;10317;47.254;11.314;2022-07-31T15:46:49;3.53;;;2.92;;
20318;SDS011;10317;47.254;11.314;2022-07-31T15:49:15;3.13;;;2.88;;
20318;SDS011;10317;47.254;11.314;2022-07-31T15:51:40;3.63;;;3.25;;
20318;SDS011;10317;47.254;11.314;2022-07-31T15:54:06;4.28;;;3.13;;
20318;SDS011;10317;47.254;11.314;2022-07-31T15:56:32;4.22;;;2.70;;
20318;SDS011;10317;47.254;11.314;2022-07-31T15:58:58;3.45;;;3.25;;
20318;SDS011;10317;47.254;11.314;2022-07-31T16:01:25;2.60;;;2.50;;
20318;SDS011;10317;47.254;11.314;2022-07-31T16:03:52;4.20;;;2.47;;
20318;SDS011;10317;47.254;11.314;2022-07-31T16:09:07;2.70;;;2.55;;
20318;SDS011;10317;47.254;11.314;2022-07-31T16:11:33;2.92;;;2.78;;
20318;SDS011;10317;47.254;11.314;2022-07-31T16:13:58;4.47;;;3.33;;
20318;SDS011;10317;47.254;11.314;2022-07-31T16:16:24;4.63;;;3.08;;
20318;SDS011;10317;47.254;11.314;2022-07-31T16:18:50;3.30;;;2.78;;
20318;SDS011;10317;47.254;11.314;2022-07-31T16:21:15;2.47;;;2.28;;
20318;SDS011;10317;47.254;11.314;2022-07-31T16:23:41;2.75;;;2.55;;
20318;SDS011;10317;47.254;11.314;2022-07-31T16:26:09;2.58;;;2.45;;
20318;SDS011;10317;47.254;11.314;2022-07-31T16:28:36;2.92;;;2.70;;
20318;SDS011;10317;47.254;11.314;2022-07-31T16:31:03;4.90;;;2.70;;
20318;SDS011;10317;47.254;11.314;2022-07-31T16:33:28;7.63;;;2.67;;
20318;SDS011;10317;47.254;11.314;2022-07-31T16:35:54;4.80;;;3.20;;
20318;SDS011;10317;47.254;11.314;2022-07-31T16:38:21;6.47;;;2.95;;
20318;SDS011;10317;47.254;11.314;2022-07-31T16:40:46;3.75;;;3.10;;
20318;SDS011;10317;47.254;11.314;2022-07-31T16:43:12;3.08;;;2.97;;
20318;SDS011;10317;47.254;11.314;2022-07-31T16:45:38;7.15;;;3.20;;
20318;SDS011;10317;47.254;11.314;2022-07-31T16:48:03;4.30;;;3.25;;
20318;SDS011;10317;47.254;11.314;2022-07-31T16:50:29;3.35;;;3.03;;
20318;SDS011;10317;47.254;11.314;2022-07-31T16:52:55;2.88;;;2.72;;
20318;SDS011;10317;47.254;11.314;2022-07-31T16:55:22;4.13;;;3.15;;
20318;SDS011;10317;47.254;11.314;2022-07-31T16:57:48;6.70;;;3.55;;
20318;SDS011;10317;47.254;11.314;2022-07-31T17:00:14;5.80;;;3.10;;